sensor_id;sensor_type;location;lat;lon;timestamp;P1;durP1;ratioP1;P2;durP2;ratioP2
26042;SDS011;13818;52.156;5.382;2024-03-22T00:02:13;26.60;;;9.73;;
26042;SDS011;13818;52.156;5.382;2024-03-22T00:04:40;27.77;;;9.63;;
26042;SDS011;13818;52.156;5.382;2024-03-22T00:07:05;25.45;;;9.55;;
26042;SDS011;13818;52.156;5.382;2024-03-22T00:09:32;25.90;;;10.43;;
26042;SDS011;13818;52.156;5.382;2024-03-22T00:11:57;22.70;;;9.88;;
26042;SDS011;13818;52.156;5.382;2024-03-22T00:14:24;26.77;;;11.13;;
26042;SDS011;13818;52.156;5.382;2024-03-22T00:16:49;22.27;;;10.10;;
26042;SDS011;13818;52.156;5.382;2024-03-22T00:19:18;26.05;;;10.40;;
26042;SDS011;13818;52.156;5.382;2024-03-22T00:21:43;17.88;;;9.52;;
26042;SDS011;13818;52.156;5.382;2024-03-22T00:24:09;23.00;;;9.60;;
26042;SDS011;13818;52.156;5.382;2024-03-22T00:26:35;25.25;;;10.77;;
26042;SDS011;13818;52.156;5.382;2024-03-22T00:29:02;23.55;;;9.38;;
26042;SDS011;13818;52.156;5.382;2024-03-22T00:31:27;20.92;;;9.40;;
26042;SDS011;13818;52.156;5.382;2024-03-22T00:33:54;24.48;;;9.63;;
26042;SDS011;13818;52.156;5.382;2024-03-22T00:36:21;19.45;;;10.02;;
26042;SDS011;13818;52.156;5.382;2024-03-22T00:38:47;24.15;;;9.65;;
26042;SDS011;13818;52.156;5.382;2024-03-22T00:41:13;23.58;;;9.45;;
26042;SDS011;13818;52.156;5.382;2024-03-22T00:43:40;24.73;;;9.57;;
26042;SDS011;13818;52.156;5.382;2024-03-22T00:46:05;20.48;;;8.95;;
26042;SDS011;13818;52.156;5.382;2024-03-22T00:48:32;23.95;;;9.38;;
26042;SDS011;13818;52.156;5.382;2024-03-22T00:50:58;25.50;;;10.00;;
26042;SDS011;13818;52.156;5.382;2024-03-22T00:53:26;28.80;;;10.10;;
26042;SDS011;13818;52.156;5.382;2024-03-22T00:55:51;20.20;;;9.60;;
26042;SDS011;13818;52.156;5.382;2024-03-22T00:58:18;24.90;;;10.00;;
26042;SDS011;13818;52.156;5.382;2024-03-22T01:00:44;18.83;;;8.57;;
26042;SDS011;13818;52.156;5.382;2024-03-22T01:03:10;20.48;;;9.27;;
26042;SDS011;13818;52.156;5.382;2024-03-22T01:05:36;22.23;;;9.35;;
26042;SDS011;13818;52.156;5.382;2024-03-22T01:08:03;25.80;;;9.68;;
26042;SDS011;13818;52.156;5.382;2024-03-22T01:10:30;25.05;;;10.00;;
26042;SDS011;13818;52.156;5.382;2024-03-22T01:12:57;21.73;;;10.18;;
26042;SDS011;13818;52.156;5.382;2024-03-22T01:15:22;26.10;;;9.43;;
26042;SDS011;13818;52.156;5.382;2024-03-22T01:17:49;20.73;;;9.40;;
26042;SDS011;13818;52.156;5.382;2024-03-22T01:20:14;21.85;;;8.88;;
26042;SDS011;13818;52.156;5.382;2024-03-22T01:22:41;20.88;;;9.52;;
26042;SDS011;13818;52.156;5.382;2024-03-22T01:25:07;20.75;;;9.20;;
26042;SDS011;13818;52.156;5.382;2024-03-22T01:27:36;27.85;;;10.88;;
26042;SDS011;13818;52.156;5.382;2024-03-22T01:30:02;21.00;;;9.52;;
26042;SDS011;13818;52.156;5.382;2024-03-22T01:32:30;23.35;;;9.38;;
26042;SDS011;13818;52.156;5.382;2024-03-22T01:34:56;23.65;;;9.30;;
26042;SDS011;13818;52.156;5.382;2024-03-22T01:37:23;21.55;;;9.90;;
26042;SDS011;13818;52.156;5.382;2024-03-22T01:39:48;23.50;;;9.35;;
26042;SDS011;13818;52.156;5.382;2024-03-22T01:42:15;26.98;;;10.70;;
26042;SDS011;13818;52.156;5.382;2024-03-22T01:44:42;23.02;;;9.07;;
26042;SDS011;13818;52.156;5.382;2024-03-22T01:47:08;20.25;;;8.95;;
26042;SDS011;13818;52.156;5.382;2024-03-22T01:49:34;24.15;;;9.75;;
26042;SDS011;13818;52.156;5.382;2024-03-22T01:52:01;26.08;;;9.30;;
26042;SDS011;13818;52.156;5.382;2024-03-22T01:54:28;26.00;;;9.77;;
26042;SDS011;13818;52.156;5.382;2024-03-22T01:56:55;19.52;;;8.60;;
26042;SDS011;13818;52.156;5.382;2024-03-22T01:59:21;24.00;;;9.38;;
26042;SDS011;13818;52.156;5.382;2024-03-22T02:01:49;24.92;;;9.05;;
26042;SDS011;13818;52.156;5.382;2024-03-22T02:04:15;24.42;;;9.95;;
26042;SDS011;13818;52.156;5.382;2024-03-22T02:06:42;21.60;;;9.63;;
26042;SDS011;13818;52.156;5.382;2024-03-22T02:09:08;22.83;;;9.05;;
26042;SDS011;13818;52.156;5.382;2024-03-22T02:11:35;23.08;;;9.85;;
26042;SDS011;13818;52.156;5.382;2024-03-22T02:14:02;25.00;;;8.40;;
26042;SDS011;13818;52.156;5.382;2024-03-22T02:16:29;23.67;;;9.25;;
26042;SDS011;13818;52.156;5.382;2024-03-22T02:18:56;21.50;;;8.93;;
26042;SDS011;13818;52.156;5.382;2024-03-22T02:21:22;24.05;;;9.68;;
26042;SDS011;13818;52.156;5.382;2024-03-22T02:23:49;23.27;;;9.90;;
26042;SDS011;13818;52.156;5.382;2024-03-22T02:26:15;22.65;;;10.05;;
26042;SDS011;13818;52.156;5.382;2024-03-22T02:28:41;32.40;;;11.10;;
26042;SDS011;13818;52.156;5.382;2024-03-22T02:31:07;27.77;;;11.55;;
26042;SDS011;13818;52.156;5.382;2024-03-22T02:33:33;26.42;;;10.02;;
26042;SDS011;13818;52.156;5.382;2024-03-22T02:35:59;32.35;;;11.18;;
26042;SDS011;13818;52.156;5.382;2024-03-22T02:38:25;24.13;;;10.10;;
26042;SDS011;13818;52.156;5.382;2024-03-22T02:40:53;22.85;;;9.73;;
26042;SDS011;13818;52.156;5.382;2024-03-22T02:43:19;26.58;;;11.25;;
26042;SDS011;13818;52.156;5.382;2024-03-22T02:45:46;29.98;;;12.50;;
26042;SDS011;13818;52.156;5.382;2024-03-22T02:48:11;33.13;;;13.05;;
26042;SDS011;13818;52.156;5.382;2024-03-22T02:50:38;23.48;;;12.07;;
26042;SDS011;13818;52.156;5.382;2024-03-22T02:53:04;33.40;;;12.52;;
26042;SDS011;13818;52.156;5.382;2024-03-22T02:55:35;32.95;;;13.20;;
26042;SDS011;13818;52.156;5.382;2024-03-22T02:58:03;28.08;;;11.30;;
26042;SDS011;13818;52.156;5.382;2024-03-22T03:00:29;33.25;;;13.15;;
26042;SDS011;13818;52.156;5.382;2024-03-22T03:02:55;35.08;;;12.43;;
26042;SDS011;13818;52.156;5.382;2024-03-22T03:05:21;33.38;;;13.45;;
26042;SDS011;13818;52.156;5.382;2024-03-22T03:07:47;32.53;;;14.40;;
26042;SDS011;13818;52.156;5.382;2024-03-22T03:10:14;25.80;;;11.55;;
26042;SDS011;13818;52.156;5.382;2024-03-22T03:12:39;28.05;;;11.18;;
26042;SDS011;13818;52.156;5.382;2024-03-22T03:15:07;31.55;;;12.55;;
26042;SDS011;13818;52.156;5.382;2024-03-22T03:17:33;29.08;;;11.82;;
26042;SDS011;13818;52.156;5.382;2024-03-22T03:20:00;26.38;;;11.02;;
26042;SDS011;13818;52.156;5.382;2024-03-22T03:22:25;28.75;;;12.25;;
26042;SDS011;13818;52.156;5.382;2024-03-22T03:24:52;26.45;;;11.65;;
26042;SDS011;13818;52.156;5.382;2024-03-22T03:27:17;32.47;;;13.05;;
26042;SDS011;13818;52.156;5.382;2024-03-22T03:29:44;24.27;;;10.73;;
26042;SDS011;13818;52.156;5.382;2024-03-22T03:32:10;28.25;;;12.63;;
26042;SDS011;13818;52.156;5.382;2024-03-22T03:34:37;35.25;;;11.77;;
26042;SDS011;13818;52.156;5.382;2024-03-22T03:37:02;32.42;;;13.18;;
26042;SDS011;13818;52.156;5.382;2024-03-22T03:39:29;34.42;;;11.98;;
26042;SDS011;13818;52.156;5.382;2024-03-22T03:41:55;31.65;;;12.75;;
26042;SDS011;13818;52.156;5.382;2024-03-22T03:44:21;32.60;;;11.77;;
26042;SDS011;13818;52.156;5.382;2024-03-22T03:46:47;30.63;;;11.27;;
26042;SDS011;13818;52.156;5.382;2024-03-22T03:49:15;27.58;;;11.95;;
26042;SDS011;13818;52.156;5.382;2024-03-22T03:51:40;29.98;;;10.95;;
26042;SDS011;13818;52.156;5.382;2024-03-22T03:54:07;25.05;;;11.00;;
26042;SDS011;13818;52.156;5.382;2024-03-22T03:56:32;23.58;;;10.32;;
26042;SDS011;13818;52.156;5.382;2024-03-22T03:58:59;22.38;;;9.73;;
26042;SDS011;13818;52.156;5.382;2024-03-22T04:01:24;30.83;;;11.50;;
26042;SDS011;13818;52.156;5.382;2024-03-22T04:03:51;34.33;;;11.90;;
26042;SDS011;13818;52.156;5.382;2024-03-22T04:06:18;24.20;;;10.23;;
26042;SDS011;13818;52.156;5.382;2024-03-22T04:08:44;21.50;;;9.10;;
26042;SDS011;13818;52.156;5.382;2024-03-22T04:11:10;30.55;;;8.70;;
26042;SDS011;13818;52.156;5.382;2024-03-22T04:13:36;32.58;;;10.02;;
26042;SDS011;13818;52.156;5.382;2024-03-22T04:16:02;23.60;;;9.88;;
26042;SDS011;13818;52.156;5.382;2024-03-22T04:18:30;25.27;;;9.48;;
26042;SDS011;13818;52.156;5.382;2024-03-22T04:20:56;26.20;;;9.35;;
26042;SDS011;13818;52.156;5.382;2024-03-22T04:23:24;21.15;;;9.00;;
26042;SDS011;13818;52.156;5.382;2024-03-22T04:25:54;23.60;;;9.18;;
26042;SDS011;13818;52.156;5.382;2024-03-22T04:28:20;21.27;;;9.30;;
26042;SDS011;13818;52.156;5.382;2024-03-22T04:30:53;23.65;;;8.77;;
26042;SDS011;13818;52.156;5.382;2024-03-22T04:33:22;26.33;;;10.07;;
26042;SDS011;13818;52.156;5.382;2024-03-22T04:35:47;23.60;;;7.97;;
26042;SDS011;13818;52.156;5.382;2024-03-22T04:38:14;23.88;;;8.50;;
26042;SDS011;13818;52.156;5.382;2024-03-22T04:40:43;18.45;;;7.55;;
26042;SDS011;13818;52.156;5.382;2024-03-22T04:43:09;25.83;;;9.50;;
26042;SDS011;13818;52.156;5.382;2024-03-22T04:45:37;23.45;;;9.43;;
26042;SDS011;13818;52.156;5.382;2024-03-22T04:48:03;24.33;;;10.15;;
26042;SDS011;13818;52.156;5.382;2024-03-22T04:50:30;24.35;;;9.57;;
26042;SDS011;13818;52.156;5.382;2024-03-22T04:52:55;23.20;;;9.65;;
26042;SDS011;13818;52.156;5.382;2024-03-22T04:55:22;22.33;;;9.50;;
26042;SDS011;13818;52.156;5.382;2024-03-22T04:57:49;25.20;;;8.90;;
26042;SDS011;13818;52.156;5.382;2024-03-22T05:00:15;20.42;;;8.30;;
26042;SDS011;13818;52.156;5.382;2024-03-22T05:02:41;23.85;;;8.02;;
26042;SDS011;13818;52.156;5.382;2024-03-22T05:05:08;25.73;;;9.10;;
26042;SDS011;13818;52.156;5.382;2024-03-22T05:07:34;22.98;;;9.25;;
26042;SDS011;13818;52.156;5.382;2024-03-22T05:10:01;26.98;;;9.25;;
26042;SDS011;13818;52.156;5.382;2024-03-22T05:12:26;22.15;;;8.57;;
26042;SDS011;13818;52.156;5.382;2024-03-22T05:14:54;26.38;;;9.80;;
26042;SDS011;13818;52.156;5.382;2024-03-22T05:17:20;24.80;;;8.57;;
26042;SDS011;13818;52.156;5.382;2024-03-22T05:19:47;22.38;;;9.60;;
26042;SDS011;13818;52.156;5.382;2024-03-22T05:22:13;25.02;;;9.18;;
26042;SDS011;13818;52.156;5.382;2024-03-22T05:24:39;25.23;;;9.30;;
26042;SDS011;13818;52.156;5.382;2024-03-22T05:27:05;27.42;;;10.35;;
26042;SDS011;13818;52.156;5.382;2024-03-22T05:29:32;23.58;;;10.60;;
26042;SDS011;13818;52.156;5.382;2024-03-22T05:31:58;23.85;;;9.50;;
26042;SDS011;13818;52.156;5.382;2024-03-22T05:34:25;26.88;;;10.90;;
26042;SDS011;13818;52.156;5.382;2024-03-22T05:36:51;31.25;;;12.65;;
26042;SDS011;13818;52.156;5.382;2024-03-22T05:39:17;26.08;;;9.88;;
26042;SDS011;13818;52.156;5.382;2024-03-22T05:41:44;24.85;;;11.00;;
26042;SDS011;13818;52.156;5.382;2024-03-22T05:44:11;18.48;;;9.10;;
26042;SDS011;13818;52.156;5.382;2024-03-22T05:46:37;25.05;;;10.38;;
26042;SDS011;13818;52.156;5.382;2024-03-22T05:49:04;26.67;;;11.20;;
26042;SDS011;13818;52.156;5.382;2024-03-22T05:51:30;25.05;;;10.43;;
26042;SDS011;13818;52.156;5.382;2024-03-22T05:53:57;22.15;;;8.98;;
26042;SDS011;13818;52.156;5.382;2024-03-22T05:56:22;23.77;;;10.32;;
26042;SDS011;13818;52.156;5.382;2024-03-22T05:58:49;25.58;;;8.57;;
26042;SDS011;13818;52.156;5.382;2024-03-22T06:01:14;22.17;;;8.93;;
26042;SDS011;13818;52.156;5.382;2024-03-22T06:03:41;19.80;;;9.07;;
26042;SDS011;13818;52.156;5.382;2024-03-22T06:06:08;22.55;;;9.98;;
26042;SDS011;13818;52.156;5.382;2024-03-22T06:08:34;22.50;;;8.68;;
26042;SDS011;13818;52.156;5.382;2024-03-22T06:11:00;20.05;;;8.50;;
26042;SDS011;13818;52.156;5.382;2024-03-22T06:13:26;26.27;;;8.65;;
26042;SDS011;13818;52.156;5.382;2024-03-22T06:15:52;26.65;;;9.00;;
26042;SDS011;13818;52.156;5.382;2024-03-22T06:18:19;21.08;;;9.10;;
26042;SDS011;13818;52.156;5.382;2024-03-22T06:20:47;17.00;;;8.40;;
26042;SDS011;13818;52.156;5.382;2024-03-22T06:25:40;23.58;;;10.80;;
26042;SDS011;13818;52.156;5.382;2024-03-22T06:28:06;20.02;;;8.55;;
26042;SDS011;13818;52.156;5.382;2024-03-22T06:30:33;26.60;;;9.85;;
26042;SDS011;13818;52.156;5.382;2024-03-22T06:32:58;27.27;;;9.85;;
26042;SDS011;13818;52.156;5.382;2024-03-22T06:35:24;24.73;;;8.73;;
26042;SDS011;13818;52.156;5.382;2024-03-22T06:37:50;25.20;;;10.57;;
26042;SDS011;13818;52.156;5.382;2024-03-22T06:40:20;25.13;;;11.02;;
26042;SDS011;13818;52.156;5.382;2024-03-22T06:42:45;22.92;;;9.65;;
26042;SDS011;13818;52.156;5.382;2024-03-22T06:45:12;21.25;;;9.90;;
26042;SDS011;13818;52.156;5.382;2024-03-22T06:47:37;18.30;;;8.55;;
26042;SDS011;13818;52.156;5.382;2024-03-22T06:50:04;23.27;;;9.20;;
26042;SDS011;13818;52.156;5.382;2024-03-22T06:52:31;18.40;;;8.23;;
26042;SDS011;13818;52.156;5.382;2024-03-22T06:54:57;20.52;;;8.00;;
26042;SDS011;13818;52.156;5.382;2024-03-22T06:57:24;23.73;;;8.32;;
26042;SDS011;13818;52.156;5.382;2024-03-22T06:59:50;18.23;;;7.10;;
26042;SDS011;13818;52.156;5.382;2024-03-22T07:02:16;19.23;;;8.60;;
26042;SDS011;13818;52.156;5.382;2024-03-22T07:04:44;22.20;;;8.27;;
26042;SDS011;13818;52.156;5.382;2024-03-22T07:07:10;19.45;;;7.45;;
26042;SDS011;13818;52.156;5.382;2024-03-22T07:09:36;18.80;;;6.82;;
26042;SDS011;13818;52.156;5.382;2024-03-22T07:12:02;16.20;;;6.88;;
26042;SDS011;13818;52.156;5.382;2024-03-22T07:14:30;18.08;;;7.18;;
26042;SDS011;13818;52.156;5.382;2024-03-22T07:16:55;21.83;;;6.82;;
26042;SDS011;13818;52.156;5.382;2024-03-22T07:19:22;26.83;;;8.00;;
26042;SDS011;13818;52.156;5.382;2024-03-22T07:21:48;18.20;;;8.07;;
26042;SDS011;13818;52.156;5.382;2024-03-22T07:24:14;14.45;;;6.20;;
26042;SDS011;13818;52.156;5.382;2024-03-22T07:26:40;16.40;;;7.57;;
26042;SDS011;13818;52.156;5.382;2024-03-22T07:29:06;20.05;;;7.65;;
26042;SDS011;13818;52.156;5.382;2024-03-22T07:31:33;16.48;;;6.47;;
26042;SDS011;13818;52.156;5.382;2024-03-22T07:33:59;13.77;;;5.60;;
26042;SDS011;13818;52.156;5.382;2024-03-22T07:36:25;20.45;;;6.55;;
26042;SDS011;13818;52.156;5.382;2024-03-22T07:38:51;21.45;;;6.13;;
26042;SDS011;13818;52.156;5.382;2024-03-22T07:41:17;19.45;;;7.88;;
26042;SDS011;13818;52.156;5.382;2024-03-22T07:43:44;15.40;;;6.97;;
26042;SDS011;13818;52.156;5.382;2024-03-22T07:46:09;14.40;;;7.07;;
26042;SDS011;13818;52.156;5.382;2024-03-22T07:48:38;13.82;;;6.25;;
26042;SDS011;13818;52.156;5.382;2024-03-22T07:51:03;15.48;;;6.50;;
26042;SDS011;13818;52.156;5.382;2024-03-22T07:53:30;14.73;;;6.93;;
26042;SDS011;13818;52.156;5.382;2024-03-22T07:55:55;18.05;;;6.30;;
26042;SDS011;13818;52.156;5.382;2024-03-22T07:58:22;19.98;;;6.65;;
26042;SDS011;13818;52.156;5.382;2024-03-22T08:00:47;18.17;;;5.97;;
26042;SDS011;13818;52.156;5.382;2024-03-22T08:03:14;13.95;;;5.88;;
26042;SDS011;13818;52.156;5.382;2024-03-22T08:05:42;15.50;;;6.78;;
26042;SDS011;13818;52.156;5.382;2024-03-22T08:08:08;20.00;;;7.00;;
26042;SDS011;13818;52.156;5.382;2024-03-22T08:10:34;17.98;;;6.60;;
26042;SDS011;13818;52.156;5.382;2024-03-22T08:13:00;13.75;;;6.22;;
26042;SDS011;13818;52.156;5.382;2024-03-22T08:15:26;13.80;;;5.25;;
26042;SDS011;13818;52.156;5.382;2024-03-22T08:17:52;16.45;;;6.47;;
26042;SDS011;13818;52.156;5.382;2024-03-22T08:20:18;18.92;;;6.65;;
26042;SDS011;13818;52.156;5.382;2024-03-22T08:22:46;16.35;;;6.88;;
26042;SDS011;13818;52.156;5.382;2024-03-22T08:25:11;17.63;;;6.13;;
26042;SDS011;13818;52.156;5.382;2024-03-22T08:27:42;17.15;;;7.15;;
26042;SDS011;13818;52.156;5.382;2024-03-22T08:30:08;15.48;;;6.10;;
26042;SDS011;13818;52.156;5.382;2024-03-22T08:32:35;15.38;;;5.57;;
26042;SDS011;13818;52.156;5.382;2024-03-22T08:35:00;12.00;;;5.45;;
26042;SDS011;13818;52.156;5.382;2024-03-22T08:39:55;18.00;;;5.30;;
26042;SDS011;13818;52.156;5.382;2024-03-22T08:42:22;16.08;;;5.18;;
26042;SDS011;13818;52.156;5.382;2024-03-22T08:44:47;14.75;;;5.80;;
26042;SDS011;13818;52.156;5.382;2024-03-22T08:47:14;12.02;;;4.63;;
26042;SDS011;13818;52.156;5.382;2024-03-22T08:49:40;11.30;;;4.88;;
26042;SDS011;13818;52.156;5.382;2024-03-22T08:52:09;12.15;;;4.45;;
26042;SDS011;13818;52.156;5.382;2024-03-22T08:54:35;14.63;;;4.82;;
26042;SDS011;13818;52.156;5.382;2024-03-22T08:57:02;11.98;;;4.82;;
26042;SDS011;13818;52.156;5.382;2024-03-22T08:59:28;15.05;;;4.60;;
26042;SDS011;13818;52.156;5.382;2024-03-22T09:01:54;11.07;;;5.20;;
26042;SDS011;13818;52.156;5.382;2024-03-22T09:04:20;8.65;;;3.60;;
26042;SDS011;13818;52.156;5.382;2024-03-22T09:06:46;12.80;;;4.38;;
26042;SDS011;13818;52.156;5.382;2024-03-22T09:09:12;9.45;;;4.18;;
26042;SDS011;13818;52.156;5.382;2024-03-22T09:11:39;8.85;;;4.20;;
26042;SDS011;13818;52.156;5.382;2024-03-22T09:14:05;12.93;;;4.68;;
26042;SDS011;13818;52.156;5.382;2024-03-22T09:16:33;8.77;;;4.15;;
26042;SDS011;13818;52.156;5.382;2024-03-22T09:18:58;8.73;;;3.60;;
26042;SDS011;13818;52.156;5.382;2024-03-22T09:21:25;8.20;;;4.07;;
26042;SDS011;13818;52.156;5.382;2024-03-22T09:23:50;10.65;;;4.20;;
26042;SDS011;13818;52.156;5.382;2024-03-22T09:26:17;9.63;;;3.67;;
26042;SDS011;13818;52.156;5.382;2024-03-22T09:28:42;9.25;;;4.05;;
26042;SDS011;13818;52.156;5.382;2024-03-22T09:31:13;9.23;;;4.68;;
26042;SDS011;13818;52.156;5.382;2024-03-22T09:33:39;10.13;;;4.07;;
26042;SDS011;13818;52.156;5.382;2024-03-22T09:36:05;9.57;;;3.80;;
26042;SDS011;13818;52.156;5.382;2024-03-22T09:38:31;14.50;;;4.05;;
26042;SDS011;13818;52.156;5.382;2024-03-22T09:40:58;7.07;;;3.60;;
26042;SDS011;13818;52.156;5.382;2024-03-22T09:43:23;8.80;;;3.65;;
26042;SDS011;13818;52.156;5.382;2024-03-22T09:45:53;7.07;;;4.10;;
26042;SDS011;13818;52.156;5.382;2024-03-22T09:48:21;7.55;;;3.80;;
26042;SDS011;13818;52.156;5.382;2024-03-22T09:50:49;6.50;;;3.40;;
26042;SDS011;13818;52.156;5.382;2024-03-22T09:53:15;7.72;;;3.40;;
26042;SDS011;13818;52.156;5.382;2024-03-22T09:55:44;9.95;;;4.40;;
26042;SDS011;13818;52.156;5.382;2024-03-22T09:58:10;7.13;;;3.42;;
26042;SDS011;13818;52.156;5.382;2024-03-22T10:00:38;8.20;;;3.97;;
26042;SDS011;13818;52.156;5.382;2024-03-22T10:03:03;5.88;;;2.97;;
26042;SDS011;13818;52.156;5.382;2024-03-22T10:05:32;7.90;;;3.33;;
26042;SDS011;13818;52.156;5.382;2024-03-22T10:07:57;6.20;;;3.40;;
26042;SDS011;13818;52.156;5.382;2024-03-22T10:10:24;4.50;;;2.85;;
26042;SDS011;13818;52.156;5.382;2024-03-22T10:12:50;7.65;;;2.83;;
26042;SDS011;13818;52.156;5.382;2024-03-22T10:15:18;7.43;;;4.03;;
26042;SDS011;13818;52.156;5.382;2024-03-22T10:17:43;5.22;;;3.08;;
26042;SDS011;13818;52.156;5.382;2024-03-22T10:20:12;6.60;;;2.88;;
26042;SDS011;13818;52.156;5.382;2024-03-22T10:22:42;5.80;;;3.60;;
26042;SDS011;13818;52.156;5.382;2024-03-22T10:25:09;6.47;;;3.25;;
26042;SDS011;13818;52.156;5.382;2024-03-22T10:27:37;5.97;;;3.13;;
26042;SDS011;13818;52.156;5.382;2024-03-22T10:30:06;7.88;;;3.13;;
26042;SDS011;13818;52.156;5.382;2024-03-22T10:32:34;5.53;;;3.00;;
26042;SDS011;13818;52.156;5.382;2024-03-22T10:35:01;9.90;;;3.72;;
26042;SDS011;13818;52.156;5.382;2024-03-22T10:37:30;7.43;;;3.10;;
26042;SDS011;13818;52.156;5.382;2024-03-22T10:39:59;4.50;;;2.72;;
26042;SDS011;13818;52.156;5.382;2024-03-22T10:42:26;4.65;;;3.17;;
26042;SDS011;13818;52.156;5.382;2024-03-22T10:44:54;4.70;;;2.95;;
26042;SDS011;13818;52.156;5.382;2024-03-22T10:47:19;7.97;;;2.63;;
26042;SDS011;13818;52.156;5.382;2024-03-22T10:49:50;5.68;;;2.63;;
26042;SDS011;13818;52.156;5.382;2024-03-22T10:52:22;6.65;;;3.03;;
26042;SDS011;13818;52.156;5.382;2024-03-22T10:54:49;7.72;;;3.10;;
26042;SDS011;13818;52.156;5.382;2024-03-22T10:57:16;7.40;;;3.38;;
26042;SDS011;13818;52.156;5.382;2024-03-22T11:02:11;11.32;;;3.67;;
26042;SDS011;13818;52.156;5.382;2024-03-22T11:04:37;8.10;;;3.60;;
26042;SDS011;13818;52.156;5.382;2024-03-22T11:07:03;6.72;;;3.03;;
26042;SDS011;13818;52.156;5.382;2024-03-22T11:09:29;6.07;;;3.03;;
26042;SDS011;13818;52.156;5.382;2024-03-22T11:11:55;8.52;;;3.45;;
26042;SDS011;13818;52.156;5.382;2024-03-22T11:14:25;6.45;;;3.63;;
26042;SDS011;13818;52.156;5.382;2024-03-22T11:16:50;8.77;;;2.80;;
26042;SDS011;13818;52.156;5.382;2024-03-22T11:19:17;5.85;;;2.83;;
26042;SDS011;13818;52.156;5.382;2024-03-22T11:21:43;7.45;;;3.05;;
26042;SDS011;13818;52.156;5.382;2024-03-22T11:24:09;7.43;;;3.55;;
26042;SDS011;13818;52.156;5.382;2024-03-22T11:26:36;4.57;;;2.20;;
26042;SDS011;13818;52.156;5.382;2024-03-22T11:29:02;4.63;;;2.50;;
26042;SDS011;13818;52.156;5.382;2024-03-22T11:31:29;5.68;;;2.88;;
26042;SDS011;13818;52.156;5.382;2024-03-22T11:36:23;6.50;;;2.53;;
26042;SDS011;13818;52.156;5.382;2024-03-22T11:38:49;3.88;;;2.20;;
26042;SDS011;13818;52.156;5.382;2024-03-22T11:41:17;5.18;;;2.40;;
26042;SDS011;13818;52.156;5.382;2024-03-22T11:43:47;2.92;;;1.55;;
26042;SDS011;13818;52.156;5.382;2024-03-22T11:46:14;3.03;;;1.70;;
26042;SDS011;13818;52.156;5.382;2024-03-22T11:48:43;3.58;;;2.03;;
26042;SDS011;13818;52.156;5.382;2024-03-22T11:51:09;5.07;;;1.98;;
26042;SDS011;13818;52.156;5.382;2024-03-22T11:53:35;7.07;;;1.77;;
26042;SDS011;13818;52.156;5.382;2024-03-22T11:56:01;3.22;;;1.52;;
26042;SDS011;13818;52.156;5.382;2024-03-22T11:58:29;2.75;;;1.50;;
26042;SDS011;13818;52.156;5.382;2024-03-22T12:00:56;3.00;;;1.77;;
26042;SDS011;13818;52.156;5.382;2024-03-22T12:03:23;2.15;;;1.30;;
26042;SDS011;13818;52.156;5.382;2024-03-22T12:05:52;3.38;;;1.50;;
26042;SDS011;13818;52.156;5.382;2024-03-22T12:08:21;3.42;;;1.60;;
26042;SDS011;13818;52.156;5.382;2024-03-22T12:10:47;1.63;;;1.17;;
26042;SDS011;13818;52.156;5.382;2024-03-22T12:13:13;2.40;;;1.50;;
26042;SDS011;13818;52.156;5.382;2024-03-22T12:15:39;3.70;;;1.65;;
26042;SDS011;13818;52.156;5.382;2024-03-22T12:18:05;3.53;;;1.67;;
26042;SDS011;13818;52.156;5.382;2024-03-22T12:20:31;3.10;;;1.70;;
26042;SDS011;13818;52.156;5.382;2024-03-22T12:22:59;3.53;;;1.85;;
26042;SDS011;13818;52.156;5.382;2024-03-22T12:25:24;7.90;;;1.65;;
26042;SDS011;13818;52.156;5.382;2024-03-22T12:27:51;4.07;;;1.90;;
26042;SDS011;13818;52.156;5.382;2024-03-22T12:30:16;3.15;;;1.45;;
26042;SDS011;13818;52.156;5.382;2024-03-22T12:32:43;6.85;;;2.15;;
26042;SDS011;13818;52.156;5.382;2024-03-22T12:35:09;3.83;;;2.08;;
26042;SDS011;13818;52.156;5.382;2024-03-22T12:37:35;3.67;;;2.17;;
26042;SDS011;13818;52.156;5.382;2024-03-22T12:40:02;9.20;;;2.53;;
26042;SDS011;13818;52.156;5.382;2024-03-22T12:42:29;8.65;;;2.47;;
26042;SDS011;13818;52.156;5.382;2024-03-22T12:44:55;6.28;;;3.22;;
26042;SDS011;13818;52.156;5.382;2024-03-22T12:47:21;7.40;;;3.00;;
26042;SDS011;13818;52.156;5.382;2024-03-22T12:49:47;8.00;;;4.53;;
26042;SDS011;13818;52.156;5.382;2024-03-22T12:52:13;12.68;;;3.90;;
26042;SDS011;13818;52.156;5.382;2024-03-22T12:54:38;8.63;;;3.15;;
26042;SDS011;13818;52.156;5.382;2024-03-22T12:57:06;9.20;;;5.03;;
26042;SDS011;13818;52.156;5.382;2024-03-22T12:59:32;5.97;;;3.58;;
26042;SDS011;13818;52.156;5.382;2024-03-22T13:01:59;7.30;;;3.60;;
26042;SDS011;13818;52.156;5.382;2024-03-22T13:04:25;5.97;;;3.05;;
26042;SDS011;13818;52.156;5.382;2024-03-22T13:06:52;8.80;;;3.67;;
26042;SDS011;13818;52.156;5.382;2024-03-22T13:09:17;5.93;;;3.15;;
26042;SDS011;13818;52.156;5.382;2024-03-22T13:11:46;7.47;;;3.30;;
26042;SDS011;13818;52.156;5.382;2024-03-22T13:14:14;4.32;;;2.20;;
26042;SDS011;13818;52.156;5.382;2024-03-22T13:16:42;8.85;;;2.88;;
26042;SDS011;13818;52.156;5.382;2024-03-22T13:19:07;7.50;;;3.53;;
26042;SDS011;13818;52.156;5.382;2024-03-22T13:21:37;6.15;;;3.38;;
26042;SDS011;13818;52.156;5.382;2024-03-22T13:24:02;8.77;;;3.38;;
26042;SDS011;13818;52.156;5.382;2024-03-22T13:26:29;6.07;;;2.58;;
26042;SDS011;13818;52.156;5.382;2024-03-22T13:28:54;7.30;;;3.17;;
26042;SDS011;13818;52.156;5.382;2024-03-22T13:31:22;12.18;;;3.70;;
26042;SDS011;13818;52.156;5.382;2024-03-22T13:33:48;8.52;;;3.50;;
26042;SDS011;13818;52.156;5.382;2024-03-22T13:36:14;6.22;;;3.30;;
26042;SDS011;13818;52.156;5.382;2024-03-22T13:38:40;7.10;;;3.13;;
26042;SDS011;13818;52.156;5.382;2024-03-22T13:41:06;7.57;;;3.70;;
26042;SDS011;13818;52.156;5.382;2024-03-22T13:43:32;7.45;;;3.28;;
26042;SDS011;13818;52.156;5.382;2024-03-22T13:46:00;7.68;;;3.75;;
26042;SDS011;13818;52.156;5.382;2024-03-22T13:48:27;5.22;;;2.55;;
26042;SDS011;13818;52.156;5.382;2024-03-22T13:50:54;11.07;;;3.70;;
26042;SDS011;13818;52.156;5.382;2024-03-22T13:53:20;6.93;;;3.47;;
26042;SDS011;13818;52.156;5.382;2024-03-22T13:55:48;6.07;;;3.75;;
26042;SDS011;13818;52.156;5.382;2024-03-22T13:58:13;7.68;;;3.25;;
26042;SDS011;13818;52.156;5.382;2024-03-22T14:00:40;16.45;;;3.75;;
26042;SDS011;13818;52.156;5.382;2024-03-22T14:03:05;9.95;;;3.38;;
26042;SDS011;13818;52.156;5.382;2024-03-22T14:05:33;8.73;;;3.72;;
26042;SDS011;13818;52.156;5.382;2024-03-22T14:07:59;6.95;;;3.78;;
26042;SDS011;13818;52.156;5.382;2024-03-22T14:10:26;9.50;;;3.63;;
26042;SDS011;13818;52.156;5.382;2024-03-22T14:12:52;11.07;;;3.92;;
26042;SDS011;13818;52.156;5.382;2024-03-22T14:15:19;10.27;;;4.32;;
26042;SDS011;13818;52.156;5.382;2024-03-22T14:17:45;7.88;;;3.47;;
26042;SDS011;13818;52.156;5.382;2024-03-22T14:20:11;10.15;;;3.75;;
26042;SDS011;13818;52.156;5.382;2024-03-22T14:22:39;9.57;;;3.72;;
26042;SDS011;13818;52.156;5.382;2024-03-22T14:25:07;6.85;;;3.22;;
26042;SDS011;13818;52.156;5.382;2024-03-22T14:27:33;7.07;;;3.30;;
26042;SDS011;13818;52.156;5.382;2024-03-22T14:30:00;10.10;;;4.07;;
26042;SDS011;13818;52.156;5.382;2024-03-22T14:32:26;8.95;;;3.45;;
26042;SDS011;13818;52.156;5.382;2024-03-22T14:34:52;6.47;;;2.95;;
26042;SDS011;13818;52.156;5.382;2024-03-22T14:37:18;2.85;;;1.45;;
26042;SDS011;13818;52.156;5.382;2024-03-22T14:39:46;12.40;;;3.83;;
26042;SDS011;13818;52.156;5.382;2024-03-22T14:42:11;4.70;;;2.70;;